Time;durP1;ratioP1;P1;durP2;ratioP2;P2;SDS_P1;SDS_P2;PMS_P1;PMS_P2;Temp;Humidity;BMP_temperature;BMP_pressure;BME280_temperature;BME280_humidity;BME280_pressure;Samples;Min_cycle;Max_cycle;Signal;HPM_P1;HPM_P2
2022/12/08 00:01:26;;;;;;;10.87;6.67;;;0.50;99.90;;;;;;5071948;28;20493;-76
2022/12/08 00:03:54;;;;;;;9.43;5.43;;;0.40;99.90;;;;;;5076702;28;20479;-76
2022/12/08 00:09:23;;;;;;;4.83;2.97;;;0.20;99.90;;;;;;5071187;28;20640;-76
2022/12/08 00:11:58;;;;;;;7.73;4.33;;;0.10;99.90;;;;;;5074814;28;20462;-76
2022/12/08 00:14:28;;;;;;;9.07;6.20;;;0.10;99.90;;;;;;5076011;28;20498;-76
2022/12/08 00:16:57;;;;;;;19.10;9.10;;;0.00;99.90;;;;;;5069271;28;21100;-76
2022/12/08 00:19:24;;;;;;;11.80;7.00;;;0.10;99.90;;;;;;5074096;28;20572;-76
2022/12/08 00:21:53;;;;;;;11.97;5.60;;;0.00;99.90;;;;;;5064276;28;20517;-76
2022/12/08 00:24:20;;;;;;;4.40;3.40;;;0.00;99.90;;;;;;5070971;28;20476;-77
2022/12/08 00:26:48;;;;;;;4.73;3.33;;;0.00;99.90;;;;;;5068011;28;20491;-76
2022/12/08 00:29:15;;;;;;;5.03;3.33;;;0.00;99.90;;;;;;5062512;28;20981;-76
2022/12/08 00:31:42;;;;;;;5.77;3.37;;;0.00;99.90;;;;;;5064484;28;21022;-76
2022/12/08 00:34:12;;;;;;;3.23;2.87;;;-0.10;99.90;;;;;;5065839;28;20479;-76
2022/12/08 00:36:39;;;;;;;6.33;3.80;;;-0.10;99.90;;;;;;5064422;28;20479;-77
2022/12/08 00:39:06;;;;;;;4.97;3.40;;;-0.10;99.90;;;;;;5062539;28;20541;-77
2022/12/08 00:44:18;;;;;;;4.43;3.20;;;-0.20;99.90;;;;;;5077734;28;20525;-76
2022/12/08 00:46:46;;;;;;;6.13;3.67;;;-0.20;99.90;;;;;;5070296;28;20461;-77
2022/12/08 00:49:15;;;;;;;6.10;3.50;;;-0.20;99.90;;;;;;5079918;28;20495;-76
2022/12/08 00:51:43;;;;;;;4.13;3.40;;;-0.20;99.90;;;;;;5081946;28;20491;-76
2022/12/08 00:54:10;;;;;;;6.60;2.67;;;-0.10;99.90;;;;;;5071680;28;20550;-76
2022/12/08 00:56:41;;;;;;;3.03;2.50;;;-0.10;99.90;;;;;;5074779;28;20541;-76
2022/12/08 00:59:08;;;;;;;3.50;3.07;;;-0.10;99.90;;;;;;5070525;28;20475;-77
2022/12/08 01:01:35;;;;;;;4.87;3.30;;;-0.10;99.90;;;;;;5082155;28;20518;-77
2022/12/08 01:04:04;;;;;;;6.50;3.43;;;-0.10;99.90;;;;;;5069817;28;20556;-77
2022/12/08 01:06:34;;;;;;;5.20;3.50;;;0.00;99.90;;;;;;5083467;28;20469;-77
2022/12/08 01:09:02;;;;;;;7.13;3.23;;;0.00;99.90;;;;;;5070378;28;20919;-77
2022/12/08 01:11:28;;;;;;;6.80;3.10;;;0.10;99.90;;;;;;5070267;28;20541;-76
2022/12/08 01:13:56;;;;;;;3.87;3.10;;;0.20;99.90;;;;;;5076267;28;20563;-77
2022/12/08 01:16:27;;;;;;;4.33;3.23;;;0.20;99.90;;;;;;5070457;28;21011;-76
2022/12/08 01:18:55;;;;;;;2.80;2.53;;;0.20;99.90;;;;;;5065064;28;20542;-77
2022/12/08 01:21:22;;;;;;;3.83;2.87;;;0.10;99.90;;;;;;5064645;28;20576;-77
2022/12/08 01:23:50;;;;;;;4.33;3.10;;;0.10;99.90;;;;;;5075457;28;20454;-77
2022/12/08 01:26:19;;;;;;;5.13;3.40;;;0.10;99.90;;;;;;5063181;28;20544;-76
2022/12/08 01:28:48;;;;;;;3.27;2.57;;;0.10;99.90;;;;;;5063540;28;20515;-76
2022/12/08 01:31:17;;;;;;;4.67;2.70;;;0.30;99.90;;;;;;5063355;28;20466;-76
2022/12/08 01:33:45;;;;;;;4.77;3.00;;;0.50;99.90;;;;;;5076318;28;20462;-77
2022/12/08 01:36:20;;;;;;;4.27;3.10;;;0.40;99.90;;;;;;5070385;28;20471;-76
2022/12/08 01:38:49;;;;;;;3.30;2.77;;;0.40;99.90;;;;;;5066698;28;20474;-76
2022/12/08 01:41:22;;;;;;;3.90;3.07;;;0.30;99.90;;;;;;5075325;28;21016;-77
2022/12/08 01:43:59;;;;;;;5.37;2.70;;;0.40;99.90;;;;;;5083888;28;20492;-77
2022/12/08 01:46:28;;;;;;;3.67;3.10;;;0.60;99.90;;;;;;5081185;28;20473;-77
2022/12/08 01:49:02;;;;;;;2.80;2.40;;;0.60;99.90;;;;;;5087373;28;20475;-77
2022/12/08 01:51:33;;;;;;;4.83;3.37;;;0.60;99.90;;;;;;5077417;28;20451;-77
2022/12/08 01:54:00;;;;;;;4.37;3.40;;;0.60;99.90;;;;;;5078755;28;20470;-77
2022/12/08 01:56:43;;;;;;;4.60;3.23;;;0.60;99.90;;;;;;5079684;28;20479;-77
2022/12/08 01:59:12;;;;;;;3.80;2.90;;;0.60;99.90;;;;;;5071570;28;21084;-77
2022/12/08 02:01:39;;;;;;;5.30;3.40;;;0.60;99.90;;;;;;5082342;28;20545;-77
2022/12/08 02:04:06;;;;;;;8.20;4.60;;;0.60;99.90;;;;;;5070855;28;21068;-77
2022/12/08 02:06:37;;;;;;;5.73;4.20;;;0.60;99.90;;;;;;5080930;28;20592;-77
2022/12/08 02:09:06;;;;;;;6.03;4.47;;;0.60;99.90;;;;;;5079409;28;20564;-77
2022/12/08 02:11:35;;;;;;;5.27;3.97;;;0.60;99.90;;;;;;5082041;28;20463;-77
2022/12/08 02:14:05;;;;;;;4.70;3.97;;;0.70;99.90;;;;;;5072950;28;20451;-77
2022/12/08 02:16:42;;;;;;;8.90;3.87;;;0.70;99.90;;;;;;5071466;28;20543;-77
2022/12/08 02:19:45;;;;;;;6.30;3.77;;;0.70;99.90;;;;;;5075778;28;20490;-78
2022/12/08 02:22:15;;;;;;;10.90;3.70;;;0.70;99.90;;;;;;5076737;28;20459;-78
2022/12/08 02:24:54;;;;;;;5.90;4.97;;;0.80;99.90;;;;;;5078569;28;20464;-77
2022/12/08 02:27:39;;;;;;;4.03;3.37;;;0.70;99.90;;;;;;5065158;28;20448;-77
2022/12/08 02:30:23;;;;;;;4.77;3.60;;;0.80;99.90;;;;;;5068978;28;20540;-77
2022/12/08 02:33:23;;;;;;;5.33;4.10;;;0.80;99.90;;;;;;5072759;28;20478;-77
2022/12/08 02:35:58;;;;;;;4.50;4.10;;;0.90;99.90;;;;;;5087231;28;20942;-77
2022/12/08 02:38:39;;;;;;;3.20;2.20;;;0.80;99.90;;;;;;5080226;28;20608;-77
2022/12/08 02:41:17;;;;;;;4.33;3.10;;;1.00;99.90;;;;;;5092868;28;20524;-77
2022/12/08 02:43:48;;;;;;;2.60;1.73;;;0.80;99.90;;;;;;5073123;28;20482;-77
2022/12/08 02:46:19;;;;;;;2.03;1.70;;;0.90;99.90;;;;;;5070908;28;20533;-77
2022/12/08 02:48:47;;;;;;;3.30;3.10;;;0.90;99.90;;;;;;5076994;28;20478;-78
2022/12/08 02:51:15;;;;;;;3.47;2.87;;;0.70;99.90;;;;;;5072996;28;20879;-78
2022/12/08 02:53:43;;;;;;;3.67;2.20;;;0.70;99.90;;;;;;5072904;28;21136;-78
2022/12/08 02:56:22;;;;;;;5.43;2.40;;;0.70;99.90;;;;;;5078151;28;20479;-78
2022/12/08 02:59:10;;;;;;;3.83;2.03;;;0.80;99.90;;;;;;5070171;28;20848;-76
2022/12/08 03:01:52;;;;;;;5.07;2.63;;;0.70;99.90;;;;;;5071610;28;20522;-76
2022/12/08 03:04:26;;;;;;;3.87;2.17;;;0.70;99.90;;;;;;5073352;28;20446;-75
2022/12/08 03:07:03;;;;;;;6.17;3.67;;;0.70;99.90;;;;;;5077718;28;20498;-76
2022/12/08 03:09:38;;;;;;;2.80;1.80;;;0.70;99.90;;;;;;5086009;28;20470;-76
2022/12/08 03:12:13;;;;;;;4.77;2.70;;;0.70;99.90;;;;;;5080082;28;20868;-76
2022/12/08 03:14:44;;;;;;;3.23;2.93;;;0.70;99.90;;;;;;5085663;28;20435;-76
2022/12/08 03:17:12;;;;;;;3.50;2.80;;;0.60;99.90;;;;;;5069960;28;20510;-76
2022/12/08 03:19:42;;;;;;;3.63;2.50;;;0.60;99.90;;;;;;5073796;28;20485;-76
2022/12/08 03:22:13;;;;;;;2.57;2.20;;;0.50;99.90;;;;;;5069525;28;20479;-76
2022/12/08 03:24:43;;;;;;;7.50;3.50;;;0.50;99.90;;;;;;5064677;28;20491;-76
2022/12/08 03:27:14;;;;;;;3.70;2.80;;;0.60;99.90;;;;;;5065081;28;20487;-76
2022/12/08 03:29:41;;;;;;;3.27;2.87;;;0.50;99.90;;;;;;5070665;28;20955;-76
2022/12/08 03:32:14;;;;;;;4.77;4.10;;;0.60;99.90;;;;;;5067258;28;20471;-76
2022/12/08 03:34:44;;;;;;;3.83;2.60;;;0.50;99.90;;;;;;5065248;28;20466;-76
2022/12/08 03:37:13;;;;;;;2.90;2.60;;;0.60;99.90;;;;;;5071804;28;20463;-76
2022/12/08 03:39:40;;;;;;;4.33;3.93;;;0.50;99.90;;;;;;5069367;28;20539;-76
2022/12/08 03:42:07;;;;;;;4.30;3.63;;;0.70;99.90;;;;;;5069877;28;21031;-76
2022/12/08 03:44:34;;;;;;;4.67;3.03;;;0.50;99.90;;;;;;5072103;28;20904;-76
2022/12/08 03:47:01;;;;;;;7.67;3.60;;;0.50;99.90;;;;;;5068225;28;21704;-76
2022/12/08 03:49:28;;;;;;;5.10;3.23;;;0.40;99.90;;;;;;5072068;28;20448;-76
2022/12/08 03:51:54;;;;;;;5.30;2.63;;;0.50;99.90;;;;;;5066450;28;20479;-78
2022/12/08 03:54:23;;;;;;;3.10;2.77;;;0.30;99.90;;;;;;5067402;28;20463;-78
2022/12/08 03:56:50;;;;;;;4.10;3.57;;;0.30;99.90;;;;;;5069617;28;20621;-78
2022/12/08 03:59:17;;;;;;;3.57;2.40;;;0.30;99.90;;;;;;5065501;28;20667;-78
2022/12/08 04:01:44;;;;;;;3.70;3.37;;;0.20;99.90;;;;;;5066255;28;20563;-78
2022/12/08 04:04:11;;;;;;;3.87;3.23;;;0.20;99.90;;;;;;5068594;28;20499;-79
2022/12/08 04:06:38;;;;;;;4.23;3.83;;;0.20;99.90;;;;;;5067053;28;20448;-78
2022/12/08 04:09:05;;;;;;;5.23;4.20;;;0.20;99.90;;;;;;5067079;28;20498;-78
2022/12/08 04:11:33;;;;;;;4.20;3.10;;;0.30;99.90;;;;;;5070499;28;21095;-78
2022/12/08 04:14:00;;;;;;;6.07;4.07;;;0.40;99.90;;;;;;5067435;28;21260;-76
2022/12/08 04:16:27;;;;;;;3.63;3.00;;;0.40;99.90;;;;;;5065829;28;20578;-76
2022/12/08 04:18:54;;;;;;;5.83;3.40;;;0.50;99.90;;;;;;5068592;28;20512;-76
2022/12/08 04:21:21;;;;;;;5.17;3.87;;;0.50;99.90;;;;;;5063592;28;20669;-76
2022/12/08 04:23:49;;;;;;;4.20;3.23;;;0.40;99.90;;;;;;5065942;28;20536;-76
2022/12/08 04:26:16;;;;;;;5.57;3.73;;;0.40;99.90;;;;;;5065842;28;20493;-76
2022/12/08 04:28:44;;;;;;;5.33;4.47;;;0.40;99.90;;;;;;5067915;28;20514;-76
2022/12/08 04:31:11;;;;;;;6.03;4.57;;;0.40;99.90;;;;;;5066842;28;20556;-76
2022/12/08 04:33:38;;;;;;;8.60;5.03;;;0.40;99.90;;;;;;5068475;28;20474;-76
2022/12/08 04:36:06;;;;;;;7.23;5.20;;;0.40;99.90;;;;;;5071122;28;20509;-76
2022/12/08 04:38:34;;;;;;;4.83;3.80;;;0.40;99.90;;;;;;5074354;28;20447;-75
2022/12/08 04:41:01;;;;;;;5.10;3.27;;;0.50;99.90;;;;;;5081590;28;20510;-76
2022/12/08 04:43:28;;;;;;;6.50;5.00;;;0.40;99.90;;;;;;5081270;28;20938;-76
2022/12/08 04:45:57;;;;;;;8.60;4.57;;;0.50;99.90;;;;;;5082967;28;20547;-76
2022/12/08 04:48:24;;;;;;;6.20;5.40;;;0.50;99.90;;;;;;5083066;28;20479;-76
2022/12/08 04:50:51;;;;;;;7.27;5.37;;;0.60;99.90;;;;;;5077932;28;20470;-76
2022/12/08 04:53:18;;;;;;;8.97;6.50;;;0.70;99.90;;;;;;5072232;28;20924;-76
2022/12/08 04:55:47;;;;;;;6.13;5.27;;;0.70;99.90;;;;;;5074970;28;20443;-76
2022/12/08 04:58:15;;;;;;;10.00;7.10;;;0.60;99.90;;;;;;5078457;28;20465;-76
2022/12/08 05:00:43;;;;;;;6.73;6.00;;;0.60;99.90;;;;;;5070265;28;20868;-76
2022/12/08 05:03:12;;;;;;;6.70;5.67;;;0.60;99.90;;;;;;5065760;28;20957;-76
2022/12/08 05:05:39;;;;;;;6.80;5.27;;;0.60;99.90;;;;;;5080508;28;20480;-76
2022/12/08 05:08:06;;;;;;;4.83;3.60;;;0.60;99.90;;;;;;5078127;28;20481;-76
2022/12/08 05:10:33;;;;;;;3.13;2.80;;;0.60;99.90;;;;;;5073618;28;20478;-76
2022/12/08 05:13:00;;;;;;;5.87;3.90;;;0.60;99.90;;;;;;5070857;28;20491;-76
2022/12/08 05:15:28;;;;;;;5.23;3.00;;;0.50;99.90;;;;;;5073033;28;20494;-76
2022/12/08 05:17:54;;;;;;;5.27;2.87;;;0.40;99.90;;;;;;5088216;28;20511;-76
2022/12/08 05:20:23;;;;;;;2.73;2.30;;;0.50;99.90;;;;;;5085137;28;20849;-76
2022/12/08 05:22:50;;;;;;;3.30;3.03;;;0.50;99.90;;;;;;5072332;28;20515;-76
2022/12/08 05:25:17;;;;;;;3.67;3.37;;;0.50;99.90;;;;;;5081578;28;20977;-76
2022/12/08 05:27:44;;;;;;;3.00;2.70;;;0.50;99.90;;;;;;5076175;28;20483;-76
2022/12/08 05:30:11;;;;;;;4.33;2.50;;;0.50;99.90;;;;;;5073503;28;20519;-76
2022/12/08 05:32:38;;;;;;;5.87;2.83;;;0.50;99.90;;;;;;5082165;28;20541;-76
2022/12/08 05:35:06;;;;;;;6.43;4.23;;;0.50;99.90;;;;;;5088155;28;20540;-76
2022/12/08 05:37:36;;;;;;;4.47;3.47;;;0.50;99.90;;;;;;5085902;28;20469;-76
2022/12/08 05:40:03;;;;;;;4.00;2.93;;;0.50;99.90;;;;;;5075818;28;20600;-77
2022/12/08 05:42:30;;;;;;;6.70;3.03;;;0.40;99.90;;;;;;5081719;28;20571;-78
2022/12/08 05:44:57;;;;;;;5.50;3.03;;;0.40;99.90;;;;;;5082532;28;20500;-78
2022/12/08 05:47:24;;;;;;;4.03;2.30;;;0.30;99.90;;;;;;5066964;28;20454;-78
2022/12/08 05:49:51;;;;;;;2.93;2.20;;;0.30;99.90;;;;;;5078856;28;20480;-78
2022/12/08 05:52:18;;;;;;;4.00;3.40;;;0.40;99.90;;;;;;5070234;28;20517;-78
2022/12/08 05:54:46;;;;;;;3.93;3.23;;;0.30;99.90;;;;;;5070660;28;20491;-78
2022/12/08 05:57:13;;;;;;;5.43;3.57;;;0.20;99.90;;;;;;5074902;28;20558;-78
2022/12/08 05:59:40;;;;;;;4.57;2.63;;;0.30;99.90;;;;;;5076639;28;20459;-78
2022/12/08 06:02:08;;;;;;;3.50;3.20;;;0.30;99.90;;;;;;5066663;28;20527;-78
2022/12/08 06:04:36;;;;;;;3.07;2.87;;;0.30;99.90;;;;;;5069643;28;20823;-76
2022/12/08 06:07:03;;;;;;;5.17;3.90;;;0.30;99.90;;;;;;5071690;28;20479;-77
2022/12/08 06:09:30;;;;;;;6.40;3.70;;;0.30;99.90;;;;;;5067193;28;20510;-78
2022/12/08 06:11:58;;;;;;;4.07;2.67;;;0.30;99.90;;;;;;5070356;28;20623;-77
2022/12/08 06:14:25;;;;;;;6.03;4.20;;;0.20;99.90;;;;;;5068071;28;20506;-78
2022/12/08 06:16:52;;;;;;;4.73;3.53;;;0.20;99.90;;;;;;5072958;28;20463;-77
2022/12/08 06:19:19;;;;;;;6.93;4.57;;;0.20;99.90;;;;;;5065024;28;20483;-78
2022/12/08 06:21:46;;;;;;;6.83;4.30;;;0.10;99.90;;;;;;5063035;28;20559;-78
2022/12/08 06:24:13;;;;;;;5.37;4.10;;;0.00;99.90;;;;;;5063655;28;20575;-78
2022/12/08 06:26:40;;;;;;;5.70;3.07;;;0.00;99.90;;;;;;5066677;28;21150;-78
2022/12/08 06:29:09;;;;;;;4.50;4.10;;;0.00;99.90;;;;;;5076903;28;20498;-77
2022/12/08 06:31:36;;;;;;;3.55;3.25;;;0.00;99.90;;;;;;5070306;28;20486;-78
2022/12/08 06:34:03;;;;;;;3.67;3.10;;;0.00;99.90;;;;;;5069173;28;20232;-78
2022/12/08 06:36:30;;;;;;;3.75;3.33;;;-0.10;99.90;;;;;;5077413;28;20693;-78
2022/12/08 06:38:57;;;;;;;5.03;4.10;;;-0.20;99.90;;;;;;5067774;28;20300;-78
2022/12/08 06:41:24;;;;;;;8.45;5.45;;;-0.20;99.90;;;;;;5072388;28;20338;-78
2022/12/08 06:43:51;;;;;;;6.07;5.50;;;-0.20;99.90;;;;;;5083387;28;20233;-78
2022/12/08 06:46:20;;;;;;;6.68;4.88;;;-0.20;99.90;;;;;;5076354;28;20528;-78
2022/12/08 06:48:47;;;;;;;8.45;5.00;;;-0.20;99.90;;;;;;5081945;28;20670;-78
2022/12/08 06:51:16;;;;;;;7.15;5.10;;;-0.30;99.90;;;;;;5083091;28;20484;-78
2022/12/08 06:53:43;;;;;;;9.60;6.47;;;-0.50;99.90;;;;;;5074499;28;20223;-78
2022/12/08 06:56:12;;;;;;;8.90;6.15;;;-0.50;99.90;;;;;;5073777;28;20718;-78
2022/12/08 06:58:39;;;;;;;9.20;6.35;;;-0.40;99.90;;;;;;5072511;28;20268;-77
2022/12/08 07:01:07;;;;;;;7.93;5.70;;;-0.40;99.90;;;;;;5083107;28;20239;-78
2022/12/08 07:03:36;;;;;;;7.10;6.35;;;-0.40;99.90;;;;;;5079116;28;20905;-78
2022/12/08 07:06:04;;;;;;;8.60;6.45;;;-0.40;99.90;;;;;;5077469;28;20300;-77
2022/12/08 07:08:31;;;;;;;6.72;5.85;;;-0.40;99.90;;;;;;5068179;28;20253;-78
2022/12/08 07:10:58;;;;;;;6.97;5.15;;;-0.40;99.90;;;;;;5076148;28;20231;-77
2022/12/08 07:13:25;;;;;;;6.47;4.82;;;-0.50;99.90;;;;;;5073170;28;20235;-77
2022/12/08 07:15:52;;;;;;;17.38;7.78;;;-0.60;99.90;;;;;;5071658;28;20263;-77
2022/12/08 07:18:19;;;;;;;8.90;5.95;;;-0.60;99.90;;;;;;5074630;28;20247;-77
2022/12/08 07:20:47;;;;;;;8.25;5.85;;;-0.50;99.90;;;;;;5069931;28;20660;-77
2022/12/08 07:23:14;;;;;;;10.15;5.28;;;-0.60;99.90;;;;;;5065584;28;20326;-77
2022/12/08 07:25:41;;;;;;;13.53;7.83;;;-0.60;99.90;;;;;;5068364;28;20373;-77
2022/12/08 07:28:10;;;;;;;15.63;10.10;;;-0.40;99.90;;;;;;5072488;28;20482;-77
2022/12/08 07:30:37;;;;;;;8.07;5.83;;;-0.50;99.90;;;;;;5062968;28;20601;-77
2022/12/08 07:33:05;;;;;;;7.90;5.43;;;-0.50;99.90;;;;;;5064701;28;20468;-77
2022/12/08 07:35:32;;;;;;;8.70;7.05;;;-0.50;99.90;;;;;;5062772;28;20207;-77
2022/12/08 07:38:00;;;;;;;8.57;6.63;;;-0.50;99.90;;;;;;5063216;28;20692;-77
2022/12/08 07:40:27;;;;;;;9.10;4.50;;;-0.50;99.90;;;;;;5063583;28;20462;-77
2022/12/08 07:42:54;;;;;;;6.30;5.15;;;-0.50;99.90;;;;;;5067747;28;20326;-77
2022/12/08 07:45:21;;;;;;;6.70;5.13;;;-0.40;99.90;;;;;;5066878;28;20247;-77
2022/12/08 07:47:48;;;;;;;12.18;10.45;;;-0.50;99.90;;;;;;5072807;28;20238;-78
2022/12/08 07:50:15;;;;;;;8.40;7.22;;;-0.40;99.90;;;;;;5066726;28;20208;-78
2022/12/08 07:52:42;;;;;;;7.25;6.50;;;-0.40;99.90;;;;;;5063431;28;20218;-78
2022/12/08 07:55:11;;;;;;;9.50;7.03;;;-0.30;99.90;;;;;;5065336;28;20252;-78
2022/12/08 07:57:38;;;;;;;10.57;6.90;;;-0.30;99.90;;;;;;5066794;28;20475;-78
2022/12/08 08:00:06;;;;;;;9.60;7.50;;;-0.30;99.90;;;;;;5064455;28;20836;-78
2022/12/08 08:02:32;;;;;;;8.47;5.73;;;-0.30;99.90;;;;;;5063291;28;21172;-77
2022/12/08 08:04:59;;;;;;;7.93;6.03;;;-0.20;99.90;;;;;;5064333;28;20487;-77
2022/12/08 08:07:26;;;;;;;64.45;35.10;;;-0.20;99.90;;;;;;5064436;28;20490;-77
2022/12/08 08:09:53;;;;;;;11.52;8.35;;;-0.10;99.90;;;;;;5064685;28;20567;-78
2022/12/08 08:12:22;;;;;;;8.17;6.30;;;0.00;99.90;;;;;;5065637;28;20240;-77
2022/12/08 08:14:49;;;;;;;9.07;6.20;;;0.10;99.90;;;;;;5067314;28;20545;-78
2022/12/08 08:17:15;;;;;;;6.47;5.35;;;0.30;99.90;;;;;;5070712;28;21004;-78
2022/12/08 08:19:42;;;;;;;7.43;4.93;;;0.40;99.90;;;;;;5068320;28;20240;-78
2022/12/08 08:22:09;;;;;;;6.95;5.60;;;0.50;99.90;;;;;;5064307;28;21116;-78
2022/12/08 08:24:36;;;;;;;6.88;4.85;;;0.60;99.90;;;;;;5061672;28;20209;-78
2022/12/08 08:27:03;;;;;;;7.30;5.13;;;0.60;99.90;;;;;;5063314;28;20697;-78
2022/12/08 08:29:32;;;;;;;5.28;4.70;;;0.60;99.90;;;;;;5064612;28;20585;-78
2022/12/08 08:32:00;;;;;;;6.82;4.90;;;0.70;99.90;;;;;;5076406;28;20247;-75
2022/12/08 08:34:26;;;;;;;5.50;4.90;;;0.80;99.90;;;;;;5063787;28;20263;-75
2022/12/08 08:36:53;;;;;;;10.20;9.17;;;0.80;99.90;;;;;;5065561;28;20232;-75
2022/12/08 08:39:20;;;;;;;8.50;7.13;;;0.80;99.90;;;;;;5061348;28;20553;-75
2022/12/08 08:41:47;;;;;;;6.15;5.38;;;0.90;99.90;;;;;;5065623;28;20572;-75
2022/12/08 08:44:15;;;;;;;6.97;6.27;;;0.90;99.90;;;;;;5067865;28;20241;-75
2022/12/08 08:46:43;;;;;;;7.70;7.00;;;1.00;99.90;;;;;;5072955;28;20513;-75
2022/12/08 08:49:10;;;;;;;7.07;5.87;;;1.10;99.90;;;;;;5071785;28;20552;-75
2022/12/08 08:51:37;;;;;;;5.03;4.53;;;1.10;99.90;;;;;;5074489;28;20489;-75
2022/12/08 08:54:04;;;;;;;4.43;3.50;;;1.30;99.90;;;;;;5077091;28;20483;-75
2022/12/08 08:56:31;;;;;;;7.10;6.27;;;1.40;99.90;;;;;;5066297;28;21101;-75
2022/12/08 08:58:58;;;;;;;8.43;6.03;;;1.40;99.90;;;;;;5068823;28;20499;-75
2022/12/08 09:01:27;;;;;;;8.20;5.53;;;1.30;99.90;;;;;;5082338;28;20540;-75
2022/12/08 09:03:56;;;;;;;13.47;6.87;;;1.50;99.90;;;;;;5071953;28;20528;-75
2022/12/08 09:06:23;;;;;;;11.63;8.73;;;1.60;99.90;;;;;;5064917;28;20514;-75
2022/12/08 09:08:51;;;;;;;7.73;6.30;;;1.90;99.90;;;;;;5069553;28;21024;-75
2022/12/08 09:11:18;;;;;;;8.60;5.90;;;2.00;99.90;;;;;;5071391;28;20555;-75
2022/12/08 09:13:47;;;;;;;10.47;8.50;;;2.20;99.90;;;;;;5077218;28;20553;-75
2022/12/08 09:16:14;;;;;;;9.63;7.57;;;2.30;99.90;;;;;;5074711;28;20474;-75
2022/12/08 09:18:41;;;;;;;9.73;7.77;;;2.20;99.90;;;;;;5069073;28;20500;-75
2022/12/08 09:21:13;;;;;;;11.70;7.90;;;2.30;99.90;;;;;;5068589;28;20559;-76
2022/12/08 09:23:41;;;;;;;7.70;6.50;;;2.40;99.90;;;;;;5072483;28;20482;-75
2022/12/08 09:26:08;;;;;;;15.90;11.17;;;2.40;99.90;;;;;;5076447;28;20853;-75
2022/12/08 09:28:35;;;;;;;11.83;7.67;;;2.40;99.90;;;;;;5072683;28;20539;-75
2022/12/08 09:31:02;;;;;;;9.40;6.20;;;2.60;99.90;;;;;;5078145;28;20494;-75
2022/12/08 09:33:29;;;;;;;7.63;6.67;;;2.80;99.90;;;;;;5068416;28;20561;-75
2022/12/08 09:35:56;;;;;;;7.40;5.80;;;2.80;99.90;;;;;;5079837;28;20501;-75
2022/12/08 09:38:24;;;;;;;8.87;6.93;;;2.80;99.90;;;;;;5067428;28;20525;-75
2022/12/08 09:40:53;;;;;;;7.17;5.47;;;2.80;99.90;;;;;;5072717;28;20467;-75
2022/12/08 09:43:35;;;;;;;6.13;5.53;;;2.90;99.90;;;;;;5081569;28;20518;-76
2022/12/08 09:46:07;;;;;;;8.20;5.57;;;2.90;99.90;;;;;;5075150;28;20495;-78
2022/12/08 09:48:37;;;;;;;9.33;6.70;;;2.90;99.90;;;;;;5076925;28;20495;-75
2022/12/08 09:51:05;;;;;;;6.50;5.13;;;2.90;99.90;;;;;;5078017;28;20474;-75
2022/12/08 09:53:36;;;;;;;7.50;5.90;;;2.90;99.90;;;;;;5068502;28;20503;-75
2022/12/08 09:56:06;;;;;;;9.07;7.27;;;2.80;99.90;;;;;;5068930;28;20478;-75
2022/12/08 09:58:43;;;;;;;6.60;5.27;;;2.80;99.90;;;;;;5079995;28;20467;-75
2022/12/08 10:01:11;;;;;;;10.80;6.57;;;2.90;99.90;;;;;;5071626;28;20558;-75
2022/12/08 10:03:40;;;;;;;7.70;6.27;;;2.90;99.90;;;;;;5074381;28;20549;-76
2022/12/08 10:06:14;;;;;;;8.17;6.37;;;2.90;99.90;;;;;;5084125;28;20506;-76
2022/12/08 10:08:51;;;;;;;7.67;5.23;;;2.80;99.90;;;;;;5067346;28;20528;-76
2022/12/08 10:11:26;;;;;;;7.80;6.47;;;2.90;99.90;;;;;;5074276;28;20478;-75
2022/12/08 10:14:08;;;;;;;8.90;5.23;;;2.80;99.90;;;;;;5073156;28;21113;-75
2022/12/08 10:16:40;;;;;;;6.07;5.33;;;2.70;99.90;;;;;;5071533;28;20496;-75
2022/12/08 10:19:14;;;;;;;8.50;5.77;;;2.70;99.90;;;;;;5073535;28;20495;-76
2022/12/08 10:21:42;;;;;;;10.13;8.60;;;2.90;99.90;;;;;;5071592;28;21065;-76
2022/12/08 10:24:18;;;;;;;8.20;6.70;;;3.00;99.90;;;;;;5069040;28;20564;-76
2022/12/08 10:26:46;;;;;;;7.17;5.83;;;3.00;99.90;;;;;;5073473;28;21041;-77
2022/12/08 10:29:14;;;;;;;8.93;6.80;;;2.90;99.90;;;;;;5073031;28;20521;-78
2022/12/08 10:31:42;;;;;;;6.23;5.63;;;3.00;99.90;;;;;;5070402;28;20479;-75
2022/12/08 10:34:18;;;;;;;9.63;5.47;;;3.00;99.90;;;;;;5076257;28;20881;-75
2022/12/08 10:36:50;;;;;;;9.47;5.67;;;3.00;99.90;;;;;;5082459;28;20742;-75
2022/12/08 10:39:34;;;;;;;7.33;6.00;;;3.10;99.90;;;;;;5077295;28;20473;-75
2022/12/08 10:42:16;;;;;;;9.43;5.03;;;3.10;99.90;;;;;;5065233;28;20544;-75
2022/12/08 10:44:54;;;;;;;9.13;6.00;;;3.20;99.90;;;;;;5070982;28;20486;-75
2022/12/08 10:47:23;;;;;;;7.60;6.30;;;3.20;99.90;;;;;;5071263;28;20458;-75
2022/12/08 10:50:16;;;;;;;8.20;7.10;;;3.20;99.90;;;;;;5071801;28;20500;-75
2022/12/08 10:52:43;;;;;;;10.57;6.30;;;3.20;99.90;;;;;;5076579;28;20469;-75
2022/12/08 10:55:16;;;;;;;7.93;7.13;;;3.20;99.90;;;;;;5074089;28;20540;-75
2022/12/08 10:57:43;;;;;;;13.33;7.87;;;3.20;99.90;;;;;;5083640;28;20489;-75
2022/12/08 11:00:13;;;;;;;8.83;7.23;;;3.30;99.90;;;;;;5069008;28;20509;-75
2022/12/08 11:02:52;;;;;;;8.10;6.93;;;3.40;99.90;;;;;;5075146;28;20483;-75
2022/12/08 11:05:22;;;;;;;9.90;6.63;;;3.30;99.90;;;;;;5067787;28;20495;-75
2022/12/08 11:07:51;;;;;;;9.57;6.23;;;3.20;99.90;;;;;;5068557;28;20487;-75
2022/12/08 11:10:26;;;;;;;7.03;5.50;;;3.20;99.90;;;;;;5070210;28;20877;-75
2022/12/08 11:12:54;;;;;;;9.53;6.80;;;3.40;99.90;;;;;;5073761;28;20504;-75
2022/12/08 11:15:22;;;;;;;9.03;6.33;;;3.40;99.90;;;;;;5066784;28;20456;-75
2022/12/08 11:18:01;;;;;;;8.23;5.90;;;3.40;99.90;;;;;;5067007;28;20495;-75
2022/12/08 11:20:38;;;;;;;9.67;7.87;;;3.40;99.90;;;;;;5064716;28;20463;-75
2022/12/08 11:23:18;;;;;;;10.83;8.43;;;3.50;99.90;;;;;;5078397;28;20511;-75
2022/12/08 11:25:48;;;;;;;8.43;7.47;;;3.50;99.90;;;;;;5075445;28;20544;-77
2022/12/08 11:28:15;;;;;;;13.60;6.57;;;3.50;99.90;;;;;;5068209;28;20475;-75
2022/12/08 11:30:47;;;;;;;8.50;6.43;;;3.50;99.90;;;;;;5074643;28;20909;-77
2022/12/08 11:33:19;;;;;;;9.70;6.27;;;3.60;99.90;;;;;;5076742;28;20525;-77
2022/12/08 11:35:51;;;;;;;8.33;6.80;;;3.70;99.90;;;;;;5071280;28;20497;-75
2022/12/08 11:38:22;;;;;;;7.13;4.87;;;3.70;99.90;;;;;;5075118;28;20486;-75
2022/12/08 11:40:54;;;;;;;13.87;7.50;;;3.60;99.90;;;;;;5085060;28;20471;-76
2022/12/08 11:43:29;;;;;;;6.93;5.90;;;3.60;99.90;;;;;;5081357;28;20501;-75
2022/12/08 11:45:59;;;;;;;9.30;6.43;;;3.50;99.90;;;;;;5082040;28;20482;-75
2022/12/08 11:48:33;;;;;;;9.73;7.40;;;3.60;99.90;;;;;;5073980;28;20505;-75
2022/12/08 11:51:07;;;;;;;11.47;7.70;;;3.60;99.90;;;;;;5074947;28;20467;-76
2022/12/08 11:53:42;;;;;;;7.23;5.43;;;3.60;99.90;;;;;;5072394;28;20491;-76
2022/12/08 11:56:17;;;;;;;6.73;6.13;;;3.50;99.90;;;;;;5071997;28;20542;-76
2022/12/08 11:58:48;;;;;;;7.30;6.47;;;3.60;99.90;;;;;;5069981;28;20571;-75
2022/12/08 12:01:20;;;;;;;7.87;5.67;;;3.60;99.90;;;;;;5071438;28;20509;-76
2022/12/08 12:03:54;;;;;;;6.23;4.87;;;3.60;99.90;;;;;;5067480;28;20511;-76
2022/12/08 12:06:44;;;;;;;8.20;5.80;;;3.60;99.90;;;;;;5067798;28;20482;-76
2022/12/08 12:09:17;;;;;;;7.93;5.03;;;3.70;99.90;;;;;;5069562;28;20525;-76
2022/12/08 12:12:14;;;;;;;7.67;6.20;;;3.80;99.90;;;;;;5070673;28;20953;-76
2022/12/08 12:15:17;;;;;;;8.70;5.57;;;3.90;99.90;;;;;;5069532;28;20479;-76
2022/12/08 12:17:47;;;;;;;8.07;6.30;;;3.70;99.90;;;;;;5073791;28;20490;-76
2022/12/08 12:20:19;;;;;;;6.80;5.03;;;3.80;99.90;;;;;;5069735;28;20541;-76
2022/12/08 12:22:51;;;;;;;9.63;5.83;;;3.90;99.90;;;;;;5065340;28;20591;-76
2022/12/08 12:25:22;;;;;;;5.93;4.73;;;3.90;99.90;;;;;;5068662;28;20483;-76
2022/12/08 12:27:52;;;;;;;6.90;5.47;;;3.90;99.90;;;;;;5068718;28;20467;-76
2022/12/08 12:30:23;;;;;;;8.00;6.67;;;3.90;99.90;;;;;;5075264;28;20518;-79
2022/12/08 12:32:54;;;;;;;6.50;5.33;;;4.00;99.90;;;;;;5075373;28;20483;-79
2022/12/08 12:35:29;;;;;;;7.47;6.20;;;3.90;99.90;;;;;;5070226;28;20467;-78
2022/12/08 12:37:59;;;;;;;6.97;5.27;;;3.90;99.90;;;;;;5069916;28;21175;-76
2022/12/08 12:40:29;;;;;;;6.30;4.50;;;3.90;99.90;;;;;;5067560;28;20499;-77
2022/12/08 12:43:24;;;;;;;9.07;5.70;;;4.00;99.90;;;;;;5066955;28;20545;-77
2022/12/08 12:46:38;;;;;;;7.53;4.87;;;3.90;99.90;;;;;;5075448;28;21043;-77
2022/12/08 12:49:37;;;;;;;6.07;5.10;;;3.90;99.90;;;;;;5077866;28;20456;-77
2022/12/08 12:52:05;;;;;;;9.00;5.27;;;3.80;99.90;;;;;;5073226;28;20510;-77
2022/12/08 12:54:32;;;;;;;8.70;6.03;;;3.80;99.90;;;;;;5064437;28;21047;-76
2022/12/08 12:57:20;;;;;;;7.63;5.60;;;3.70;99.90;;;;;;5067361;28;20499;-77
2022/12/08 13:00:08;;;;;;;7.50;5.07;;;3.70;99.90;;;;;;5071686;28;20548;-77
2022/12/08 13:02:40;;;;;;;5.53;3.60;;;3.70;99.90;;;;;;5072568;28;20487;-77
2022/12/08 13:05:10;;;;;;;8.43;5.70;;;3.70;99.90;;;;;;5067984;28;20514;-77
2022/12/08 13:07:45;;;;;;;5.47;4.83;;;3.70;99.90;;;;;;5063640;28;20558;-77
2022/12/08 13:10:18;;;;;;;7.90;4.73;;;3.70;99.90;;;;;;5074162;28;20480;-77
2022/12/08 13:13:00;;;;;;;8.50;5.13;;;3.70;99.90;;;;;;5076022;28;21081;-76
2022/12/08 13:15:35;;;;;;;6.90;5.60;;;3.60;99.90;;;;;;5066769;28;21092;-77
2022/12/08 13:18:02;;;;;;;6.83;4.90;;;3.70;99.90;;;;;;5071239;28;21164;-77